createdAt,value
2023-03-30T00:02:25.160Z,9.10
2023-03-30T00:05:13.815Z,9.10
2023-03-30T00:08:01.224Z,9.10
2023-03-30T00:10:49.265Z,9.10
2023-03-30T00:13:38.403Z,9.10
2023-03-30T00:16:27.619Z,9.10
2023-03-30T00:19:16.895Z,9.10
2023-03-30T00:22:04.769Z,8.90
2023-03-30T00:24:52.230Z,9.10
2023-03-30T00:27:40.548Z,9.00
2023-03-30T00:30:27.933Z,9.00
2023-03-30T00:33:17.045Z,9.00
2023-03-30T00:36:04.320Z,9.00
2023-03-30T00:38:51.632Z,8.90
2023-03-30T00:41:39.193Z,8.90
2023-03-30T00:45:08.762Z,8.90
2023-03-30T00:48:01.233Z,8.80
2023-03-30T00:50:53.561Z,8.80
2023-03-30T00:53:44.153Z,8.80
2023-03-30T00:56:32.263Z,8.80
2023-03-30T00:59:19.682Z,8.80
2023-03-30T01:02:07.288Z,8.70
2023-03-30T01:09:48.079Z,8.70
2023-03-30T01:12:36.341Z,8.70
2023-03-30T01:15:25.342Z,8.70
2023-03-30T01:18:25.062Z,8.70
2023-03-30T01:22:00.228Z,8.70
2023-03-30T01:25:21.951Z,8.70
2023-03-30T01:28:21.212Z,8.70
2023-03-30T01:31:32.720Z,8.60
2023-03-30T01:34:57.794Z,8.60
2023-03-30T01:38:25.179Z,8.60
2023-03-30T01:41:20.012Z,8.50
2023-03-30T01:44:14.670Z,8.50
2023-03-30T01:47:10.683Z,8.50
2023-03-30T01:50:04.138Z,8.50
2023-03-30T01:52:56.212Z,8.50
2023-03-30T01:55:47.732Z,8.50
2023-03-30T01:58:40.809Z,8.60
2023-03-30T02:01:33.145Z,8.60
2023-03-30T02:04:24.505Z,8.50
2023-03-30T02:07:15.849Z,8.60
2023-03-30T02:10:07.313Z,8.60
2023-03-30T02:12:57.981Z,8.60
2023-03-30T02:15:49.335Z,8.60
2023-03-30T02:18:38.192Z,8.70
2023-03-30T02:21:26.187Z,8.60
2023-03-30T02:24:19.194Z,8.60
2023-03-30T02:27:08.159Z,8.60
2023-03-30T02:29:56.494Z,8.60
2023-03-30T02:32:48.426Z,8.60
2023-03-30T02:35:52.357Z,8.60
2023-03-30T02:39:04.162Z,8.60
2023-03-30T02:42:19.028Z,8.60
2023-03-30T02:45:28.600Z,8.60
2023-03-30T02:48:30.117Z,8.60
2023-03-30T02:51:33.569Z,8.60
2023-03-30T02:54:50.274Z,8.60
2023-03-30T02:57:47.918Z,8.60
2023-03-30T03:01:02.293Z,8.70
2023-03-30T03:04:03.295Z,8.70
2023-03-30T03:06:57.641Z,8.70
2023-03-30T03:09:45.018Z,8.70
2023-03-30T03:12:34.403Z,8.70
2023-03-30T03:15:22.337Z,8.70
2023-03-30T03:18:24.390Z,8.70
2023-03-30T03:21:14.757Z,8.70
2023-03-30T03:24:02.421Z,8.60
2023-03-30T03:27:09.814Z,8.60
2023-03-30T03:30:35.195Z,8.60
2023-03-30T03:33:31.832Z,8.60
2023-03-30T03:36:40.548Z,8.60
2023-03-30T03:39:28.318Z,8.60
2023-03-30T03:42:24.067Z,8.60
2023-03-30T03:45:31.965Z,8.60
2023-03-30T03:48:23.191Z,8.60
2023-03-30T03:51:11.148Z,8.60
2023-03-30T03:54:00.248Z,8.60
2023-03-30T03:56:47.914Z,8.60
2023-03-30T03:59:35.768Z,8.60
2023-03-30T04:02:24.197Z,8.60
2023-03-30T04:05:13.915Z,8.60
2023-03-30T04:08:01.261Z,8.60
2023-03-30T04:10:49.834Z,8.60
2023-03-30T04:14:00.308Z,8.60
2023-03-30T04:17:26.087Z,8.70
2023-03-30T04:20:39.516Z,8.70
2023-03-30T04:23:36.514Z,8.70
2023-03-30T04:26:41.507Z,8.70
2023-03-30T04:29:49.053Z,8.60
2023-03-30T04:32:41.244Z,8.60
2023-03-30T04:35:30.177Z,8.60
2023-03-30T04:38:36.387Z,8.60
2023-03-30T04:41:52.201Z,8.60
2023-03-30T04:44:58.924Z,8.60
2023-03-30T04:48:05.467Z,8.60
2023-03-30T04:51:24.739Z,8.50
2023-03-30T04:54:32.721Z,8.50
2023-03-30T04:57:22.033Z,8.50
2023-03-30T05:00:24.106Z,8.50
2023-03-30T05:03:12.223Z,8.50
2023-03-30T05:06:12.958Z,8.50
2023-03-30T05:09:11.599Z,8.50
2023-03-30T05:12:07.507Z,8.50
2023-03-30T05:15:05.377Z,8.50
2023-03-30T05:18:18.940Z,8.60
2023-03-30T05:21:12.168Z,8.60
2023-03-30T05:24:30.971Z,8.70
2023-03-30T05:27:31.185Z,8.60
2023-03-30T05:30:27.640Z,8.70
2023-03-30T05:33:35.109Z,8.70
2023-03-30T05:36:42.815Z,8.70
2023-03-30T05:39:49.132Z,8.70
2023-03-30T05:42:42.505Z,8.70
2023-03-30T05:45:57.491Z,8.70
2023-03-30T05:49:16.874Z,8.70
2023-03-30T05:52:23.811Z,8.70
2023-03-30T05:55:17.464Z,8.70
2023-03-30T05:58:16.423Z,8.70
2023-03-30T06:01:21.884Z,8.70
2023-03-30T06:04:10.144Z,8.70
2023-03-30T06:06:58.156Z,8.80
2023-03-30T06:09:47.183Z,8.80
2023-03-30T06:12:44.985Z,8.80
2023-03-30T06:15:46.605Z,8.80
2023-03-30T06:18:40.669Z,8.80
2023-03-30T06:21:32.534Z,8.80
2023-03-30T06:24:37.303Z,8.90
2023-03-30T06:27:24.494Z,8.90
2023-03-30T06:30:12.990Z,8.90
2023-03-30T06:33:02.993Z,9.00
2023-03-30T06:36:03.515Z,9.00
2023-03-30T06:38:50.400Z,9.10
2023-03-30T06:41:38.271Z,9.20
2023-03-30T06:44:25.735Z,9.20
2023-03-30T06:47:13.026Z,9.20
2023-03-30T06:50:00.587Z,9.30
2023-03-30T06:53:12.554Z,9.30
2023-03-30T06:56:04.426Z,9.40
2023-03-30T06:58:57.118Z,9.40
2023-03-30T07:01:44.593Z,9.40
2023-03-30T07:05:04.085Z,9.60
2023-03-30T07:08:28.363Z,9.70
2023-03-30T07:11:16.038Z,9.70
2023-03-30T07:14:05.479Z,9.70
2023-03-30T07:16:54.110Z,9.70
2023-03-30T07:19:41.425Z,10.10
2023-03-30T07:22:28.860Z,10.50
2023-03-30T07:25:18.357Z,10.60
2023-03-30T07:28:06.365Z,10.80
2023-03-30T07:30:54.334Z,10.90
2023-03-30T07:33:43.079Z,11.30
2023-03-30T07:36:34.065Z,11.80
2023-03-30T07:39:21.634Z,11.90
2023-03-30T07:42:12.113Z,12.00
2023-03-30T07:44:59.763Z,12.40
2023-03-30T07:47:48.336Z,12.40
2023-03-30T07:50:36.213Z,12.40
2023-03-30T07:53:23.974Z,12.60
2023-03-30T07:56:12.101Z,12.80
2023-03-30T07:59:09.887Z,13.00
2023-03-30T08:01:58.382Z,13.30
2023-03-30T08:05:19.829Z,13.60
2023-03-30T08:08:17.671Z,14.00
2023-03-30T08:11:05.560Z,14.30
2023-03-30T08:13:53.037Z,14.70
2023-03-30T08:16:41.979Z,14.80
2023-03-30T08:19:29.410Z,15.20
2023-03-30T08:22:16.711Z,15.30
2023-03-30T08:25:03.964Z,15.60
2023-03-30T08:27:51.263Z,15.90
2023-03-30T08:30:38.863Z,15.70
2023-03-30T08:33:28.052Z,15.70
2023-03-30T08:36:16.231Z,15.80
2023-03-30T08:39:04.717Z,16.10
2023-03-30T08:42:06.135Z,16.30
2023-03-30T08:44:56.556Z,16.10
2023-03-30T08:47:48.858Z,16.50
2023-03-30T08:50:38.219Z,17.10
2023-03-30T08:53:26.375Z,16.80
2023-03-30T08:56:19.801Z,16.60
2023-03-30T08:59:19.852Z,16.30
2023-03-30T09:02:15.513Z,16.00
2023-03-30T09:05:09.467Z,16.00
2023-03-30T09:08:04.270Z,16.00
2023-03-30T09:10:57.816Z,16.00
2023-03-30T09:13:46.458Z,15.80
2023-03-30T09:16:39.794Z,15.60
2023-03-30T09:19:34.912Z,15.60
2023-03-30T09:22:26.208Z,15.50
2023-03-30T09:25:18.504Z,15.30
2023-03-30T09:28:13.463Z,15.50
2023-03-30T09:31:04.429Z,15.50
2023-03-30T09:33:59.196Z,15.50
2023-03-30T09:36:53.503Z,15.50
2023-03-30T09:39:42.226Z,15.50
2023-03-30T09:42:37.054Z,15.50
2023-03-30T09:45:29.015Z,15.60
2023-03-30T09:48:17.849Z,15.60
2023-03-30T09:51:15.591Z,15.60
2023-03-30T09:54:06.113Z,15.50
2023-03-30T09:56:57.027Z,15.50
2023-03-30T09:59:46.110Z,15.60
2023-03-30T10:02:33.957Z,15.60
2023-03-30T10:05:21.855Z,15.50
2023-03-30T10:08:24.915Z,15.30
2023-03-30T10:11:13.107Z,15.20
2023-03-30T10:14:00.749Z,15.20
2023-03-30T10:16:49.619Z,15.20
2023-03-30T10:19:38.606Z,15.20
2023-03-30T10:22:27.091Z,15.10
2023-03-30T10:25:21.214Z,15.00
2023-03-30T10:28:21.405Z,15.00
2023-03-30T10:31:15.833Z,15.10
2023-03-30T10:34:06.654Z,15.10
2023-03-30T10:36:55.073Z,15.00
2023-03-30T10:39:44.551Z,15.00
2023-03-30T10:42:33.917Z,15.00
2023-03-30T10:45:23.830Z,15.00
2023-03-30T10:48:37.593Z,15.20
2023-03-30T10:51:37.024Z,15.30
2023-03-30T10:54:31.868Z,15.50
2023-03-30T10:57:22.345Z,15.50
2023-03-30T11:00:32.600Z,15.70
2023-03-30T11:03:25.004Z,15.70
2023-03-30T11:06:17.576Z,16.00
2023-03-30T11:09:10.770Z,16.00
2023-03-30T11:12:02.607Z,16.00
2023-03-30T11:14:54.185Z,15.90
2023-03-30T11:17:49.195Z,15.90
2023-03-30T11:20:42.070Z,15.80
2023-03-30T11:23:40.748Z,15.90
2023-03-30T11:26:36.746Z,16.00
2023-03-30T11:29:32.371Z,16.30
2023-03-30T11:32:31.552Z,16.50
2023-03-30T11:35:27.073Z,16.40
2023-03-30T11:38:19.200Z,16.70
2023-03-30T11:41:12.550Z,16.70
2023-03-30T11:44:01.779Z,16.60
2023-03-30T11:47:00.354Z,16.70
2023-03-30T11:50:02.830Z,16.70
2023-03-30T11:53:01.172Z,16.80
2023-03-30T11:55:57.737Z,16.90
2023-03-30T11:58:49.122Z,17.00
2023-03-30T12:02:02.812Z,17.00
2023-03-30T12:04:57.012Z,17.40
2023-03-30T12:07:54.820Z,17.50
2023-03-30T12:10:43.830Z,17.40
2023-03-30T12:13:41.266Z,17.60
2023-03-30T12:16:38.884Z,17.60
2023-03-30T12:19:39.730Z,17.80
2023-03-30T12:22:37.833Z,18.00
2023-03-30T12:25:31.506Z,18.00
2023-03-30T12:28:27.859Z,18.10
2023-03-30T12:31:19.821Z,18.00
2023-03-30T12:34:08.649Z,17.90
2023-03-30T12:37:02.424Z,18.00
2023-03-30T12:39:55.913Z,18.10
2023-03-30T12:42:54.230Z,18.10
2023-03-30T12:45:51.875Z,18.30
2023-03-30T12:48:50.395Z,18.30
2023-03-30T12:51:54.257Z,18.30
2023-03-30T12:55:06.032Z,18.50
2023-03-30T12:58:18.371Z,18.50
2023-03-30T13:01:35.540Z,18.60
2023-03-30T13:04:26.079Z,18.70
2023-03-30T13:07:17.677Z,18.60
2023-03-30T13:10:40.606Z,18.50
2023-03-30T13:13:50.858Z,18.80
2023-03-30T13:17:12.610Z,18.70
2023-03-30T13:20:29.272Z,18.50
2023-03-30T13:23:28.405Z,18.40
2023-03-30T13:29:18.623Z,18.40
2023-03-30T13:32:21.261Z,18.30
2023-03-30T13:35:42.490Z,18.10
2023-03-30T13:38:53.959Z,18.30
2023-03-30T13:41:55.162Z,18.20
2023-03-30T13:44:59.248Z,18.10
2023-03-30T13:47:58.605Z,18.20
2023-03-30T13:50:51.855Z,18.10
2023-03-30T13:53:41.906Z,18.00
2023-03-30T13:56:32.558Z,17.80
2023-03-30T13:59:25.012Z,17.70
2023-03-30T14:02:17.222Z,17.60
2023-03-30T14:05:20.534Z,17.10
2023-03-30T14:08:11.295Z,14.70
2023-03-30T14:10:59.253Z,13.70
2023-03-30T14:13:49.101Z,13.10
2023-03-30T14:16:39.798Z,13.00
2023-03-30T14:19:29.141Z,12.60
2023-03-30T14:22:21.118Z,12.60
2023-03-30T14:25:24.412Z,12.60
2023-03-30T14:28:15.580Z,12.50
2023-03-30T14:31:05.653Z,12.50
2023-03-30T14:33:54.760Z,12.50
2023-03-30T14:36:46.312Z,12.40
2023-03-30T14:39:37.848Z,12.50
2023-03-30T14:42:28.201Z,12.40
2023-03-30T14:45:18.701Z,12.30
2023-03-30T14:48:06.157Z,12.50
2023-03-30T14:50:54.862Z,12.70
2023-03-30T14:53:42.352Z,12.70
2023-03-30T14:56:29.975Z,12.70
2023-03-30T14:59:19.792Z,12.70
2023-03-30T15:02:12.708Z,12.80
2023-03-30T15:05:01.419Z,12.90
2023-03-30T15:07:52.093Z,12.90
2023-03-30T15:10:46.870Z,12.80
2023-03-30T15:13:37.893Z,12.70
2023-03-30T15:16:29.312Z,12.70
2023-03-30T15:19:30.902Z,12.60
2023-03-30T15:22:27.832Z,12.60
2023-03-30T15:25:18.487Z,12.50
2023-03-30T15:28:08.374Z,12.40
2023-03-30T15:30:55.938Z,12.40
2023-03-30T15:33:45.546Z,12.20
2023-03-30T15:36:38.707Z,12.20
2023-03-30T15:39:33.873Z,12.20
2023-03-30T15:42:29.702Z,12.10
2023-03-30T15:45:17.290Z,12.20
2023-03-30T15:48:04.918Z,12.20
2023-03-30T15:50:56.308Z,12.20
2023-03-30T15:53:48.964Z,12.20
2023-03-30T15:56:39.680Z,12.30
2023-03-30T15:59:32.364Z,12.30
2023-03-30T16:02:22.070Z,12.20
2023-03-30T16:05:19.268Z,12.20
2023-03-30T16:08:06.608Z,12.30
2023-03-30T16:10:54.256Z,12.30
2023-03-30T16:13:43.056Z,12.30
2023-03-30T16:16:31.970Z,12.30
2023-03-30T16:19:20.623Z,12.30
2023-03-30T16:22:08.161Z,12.30
2023-03-30T16:24:55.738Z,12.40
2023-03-30T16:27:44.024Z,12.50
2023-03-30T16:30:35.073Z,12.50
2023-03-30T16:33:24.341Z,12.60
2023-03-30T16:36:15.031Z,12.60
2023-03-30T16:39:02.150Z,12.50
2023-03-30T16:41:50.574Z,12.60
2023-03-30T16:44:38.047Z,12.50
2023-03-30T16:47:25.633Z,12.60
2023-03-30T16:50:21.838Z,12.40
2023-03-30T16:53:10.040Z,12.40
2023-03-30T16:55:57.531Z,12.30
2023-03-30T16:58:45.225Z,12.40
2023-03-30T17:01:32.804Z,12.40
2023-03-30T17:04:20.309Z,12.40
2023-03-30T17:07:10.560Z,12.50
2023-03-30T17:09:57.830Z,12.50
2023-03-30T17:12:45.745Z,12.50
2023-03-30T17:15:35.091Z,12.50
2023-03-30T17:18:24.715Z,12.40
2023-03-30T17:21:16.356Z,12.40
2023-03-30T17:24:05.658Z,12.40
2023-03-30T17:26:53.177Z,12.40
2023-03-30T17:29:40.842Z,12.40
2023-03-30T17:32:28.270Z,12.30
2023-03-30T17:35:16.082Z,12.30
2023-03-30T17:38:03.735Z,12.20
2023-03-30T17:40:52.334Z,12.20
2023-03-30T17:43:39.778Z,12.10
2023-03-30T17:46:27.133Z,12.10
2023-03-30T17:49:17.505Z,12.00
2023-03-30T17:52:04.988Z,12.00
2023-03-30T17:54:52.561Z,11.90
2023-03-30T17:57:41.962Z,11.80
2023-03-30T18:00:32.248Z,11.80
2023-03-30T18:03:21.885Z,11.80
2023-03-30T18:06:12.672Z,11.80
2023-03-30T18:08:59.914Z,11.70
2023-03-30T18:11:47.420Z,11.80
2023-03-30T18:14:36.195Z,11.70
2023-03-30T18:17:23.317Z,11.70
2023-03-30T18:20:20.126Z,11.70
2023-03-30T18:23:07.747Z,11.60
2023-03-30T18:25:55.295Z,11.60
2023-03-30T18:28:43.825Z,11.60
2023-03-30T18:31:33.044Z,11.50
2023-03-30T18:34:20.175Z,11.50
2023-03-30T18:37:07.401Z,11.40
2023-03-30T18:39:54.879Z,11.30
2023-03-30T18:42:45.445Z,11.30
2023-03-30T18:45:34.490Z,11.30
2023-03-30T18:48:23.501Z,11.20
2023-03-30T18:51:12.586Z,11.30
2023-03-30T18:54:00.158Z,11.20
2023-03-30T18:56:47.797Z,11.20
2023-03-30T18:59:37.964Z,11.30
2023-03-30T19:02:26.740Z,11.30
2023-03-30T19:05:16.441Z,11.30
2023-03-30T19:08:04.009Z,11.30
2023-03-30T19:10:54.839Z,11.30
2023-03-30T19:13:42.183Z,11.30
2023-03-30T19:16:29.872Z,11.30
2023-03-30T19:19:16.967Z,11.30
2023-03-30T19:22:05.829Z,11.20
2023-03-30T19:24:52.991Z,11.20
2023-03-30T19:27:52.008Z,11.20
2023-03-30T19:30:49.298Z,11.10
2023-03-30T19:33:36.984Z,11.20
2023-03-30T19:36:25.281Z,11.20
2023-03-30T19:39:14.135Z,11.20
2023-03-30T19:42:01.299Z,11.20
2023-03-30T19:44:48.820Z,11.10
2023-03-30T19:47:36.701Z,11.10
2023-03-30T19:50:24.984Z,11.00
2023-03-30T19:53:12.422Z,11.00
2023-03-30T19:56:01.292Z,11.00
2023-03-30T19:58:48.355Z,10.90
2023-03-30T20:01:36.050Z,10.80
2023-03-30T20:04:23.259Z,10.90
2023-03-30T20:07:11.854Z,10.80
2023-03-30T20:09:59.238Z,10.90
2023-03-30T20:12:48.824Z,10.90
2023-03-30T20:15:36.494Z,10.80
2023-03-30T20:18:24.188Z,10.80
2023-03-30T20:21:11.190Z,10.70
2023-03-30T20:23:59.879Z,10.70
2023-03-30T20:26:47.256Z,10.70
2023-03-30T20:29:36.178Z,10.70
2023-03-30T20:32:23.561Z,10.60
2023-03-30T20:35:11.257Z,10.60
2023-03-30T20:37:58.925Z,10.60
2023-03-30T20:40:55.398Z,10.60
2023-03-30T20:43:56.533Z,10.60
2023-03-30T20:46:47.365Z,10.50
2023-03-30T20:49:34.481Z,10.50
2023-03-30T20:52:22.294Z,10.50
2023-03-30T20:55:10.447Z,10.50
2023-03-30T20:57:58.069Z,10.50
2023-03-30T21:00:47.305Z,10.50
2023-03-30T21:03:41.187Z,10.50
2023-03-30T21:06:31.384Z,10.50
2023-03-30T21:09:18.892Z,10.40
2023-03-30T21:12:06.941Z,10.40
2023-03-30T21:14:54.184Z,10.40
2023-03-30T21:17:41.618Z,10.50
2023-03-30T21:20:30.940Z,10.40
2023-03-30T21:23:18.237Z,10.50
2023-03-30T21:26:07.200Z,10.50
2023-03-30T21:28:54.507Z,10.50
2023-03-30T21:31:41.921Z,10.50
2023-03-30T21:34:29.358Z,10.50
2023-03-30T21:37:18.161Z,10.50
2023-03-30T21:40:07.032Z,10.50
2023-03-30T21:42:54.193Z,10.50
2023-03-30T21:45:41.653Z,10.50
2023-03-30T21:48:31.827Z,10.60
2023-03-30T21:51:21.214Z,10.60
2023-03-30T21:54:10.828Z,10.60
2023-03-30T21:56:57.958Z,10.60
2023-03-30T21:59:45.363Z,10.60
2023-03-30T22:02:32.943Z,10.60
2023-03-30T22:05:20.477Z,10.60
2023-03-30T22:08:07.880Z,10.60
2023-03-30T22:10:59.737Z,10.60
2023-03-30T22:13:48.435Z,10.50
2023-03-30T22:16:36.806Z,10.50
2023-03-30T22:19:25.480Z,10.50
2023-03-30T22:22:12.762Z,10.60
2023-03-30T22:25:00.127Z,10.60
2023-03-30T22:27:49.037Z,10.50
2023-03-30T22:30:36.185Z,10.50
2023-03-30T22:33:23.535Z,10.50
2023-03-30T22:36:17.141Z,10.50
2023-03-30T22:39:04.893Z,10.50
2023-03-30T22:41:52.446Z,10.50
2023-03-30T22:44:41.187Z,10.50
2023-03-30T22:47:28.454Z,10.50
2023-03-30T22:50:17.441Z,10.50
2023-03-30T22:53:04.872Z,10.40
2023-03-30T22:55:52.062Z,10.40
2023-03-30T22:58:39.636Z,10.40
2023-03-30T23:01:32.111Z,10.50
2023-03-30T23:04:20.369Z,10.50
2023-03-30T23:07:08.467Z,10.50
2023-03-30T23:09:58.254Z,10.40
2023-03-30T23:12:46.387Z,10.50
2023-03-30T23:15:33.625Z,10.50
2023-03-30T23:18:22.392Z,10.40
2023-03-30T23:21:11.098Z,10.50
2023-03-30T23:23:59.777Z,10.50
2023-03-30T23:26:46.945Z,10.50
2023-03-30T23:29:34.440Z,10.60
2023-03-30T23:32:21.915Z,10.60
2023-03-30T23:35:11.050Z,10.60
2023-03-30T23:37:58.237Z,10.60
2023-03-30T23:40:46.374Z,10.60
2023-03-30T23:43:33.913Z,10.60
2023-03-30T23:46:21.217Z,10.60
2023-03-30T23:49:08.604Z,10.60
2023-03-30T23:51:57.703Z,10.60
2023-03-30T23:54:45.220Z,10.60
2023-03-30T23:57:32.588Z,10.50
